Aviation Digital Data Service (ADDS)

Output produced by METARs form (0017 UTC 25 September 2016)
found at http://www.aviationweather.gov/adds/metars/
 
KROW 242351Z 13006KT 10SM CLR 28/08 A2994 RMK AO2 SLP080 T02830078 10300 20261 55006
KROW 242251Z VRB06KT 10SM FEW085 29/07 A2993 RMK AO2 SLP077 T02890072
KROW 242151Z 09007KT 10SM BKN080 BKN090 29/08 A2994 RMK AO2 SLP080 T02940083
KROW 242051Z 00000KT 10SM CLR 29/09 A2996 RMK AO2 SLP086 T02940089 58020
KROW 241951Z 16006KT 10SM CLR 28/09 A2998 RMK AO2 SLP096 T02780089
KROW 241851Z 00000KT 10SM SCT075 28/09 A3001 RMK AO2 SLP103 T02780094
KROW 241751Z 27006KT 10SM CLR 27/08 A3003 RMK AO2 SLP109 T02720083 10272 20144 58008
KROW 241651Z VRB04KT 10SM CLR 26/09 A3004 RMK AO2 SLP113 T02610089
KROW 241551Z 33008KT 10SM CLR 24/09 A3004 RMK AO2 SLP114 T02390089
KROW 241451Z 31004KT 10SM CLR 21/09 A3005 RMK AO2 SLP125 T02060089 51011
KROW 241351Z 04003KT 10SM CLR 16/08 A3004 RMK AO2 SLP125 T01610083
KROW 241251Z 31005KT 10SM CLR 14/08 A3003 RMK AO2 SLP116 T01440078
KROW 241151Z 30003KT 10SM BKN120 16/08 A3002 RMK AO2 SLP105 T01560078 10172 20144 53008
KROW 241051Z 27004KT 10SM OVC110 15/08 A3000 RMK AO2 SLP098 T01500078
KROW 240951Z 34005KT 10SM BKN120 16/07 A2999 RMK AO2 SLP092 T01560072
KROW 240851Z 30004KT 10SM CLR 15/08 A2999 RMK AO2 SLP095 T01500078 51008
KROW 240751Z 01005KT 10SM CLR 16/08 A2999 RMK AO2 SLP093 T01560078
KROW 240651Z 02006KT 10SM CLR 17/08 A2997 RMK AO2 SLP088 T01670078 403220139
KROW 240551Z 03007KT 10SM CLR 17/08 A2996 RMK AO2 SLP086 T01720078 10300 20172 53018
KROW 240451Z 35006KT 10SM CLR 19/06 A2993 RMK AO2 SLP076 T01940061
KROW 240351Z 28008KT 10SM CLR 22/05 A2991 RMK AO2 SLP071 T02170050
KROW 240251Z 23007KT 10SM CLR 19/09 A2990 RMK AO2 SLP073 T01940094 53014
KROW 240151Z 20007KT 10SM CLR 21/13 A2988 RMK AO2 SLP068 T02060133
KROW 240051Z 16008KT 10SM CLR 27/13 A2987 RMK AO2 SLP055 T02670133
KROW 242341Z 2500/2524 VRB06KT P6SM FEW080 
     FM250200 35007KT P6SM FEW100 
     FM251200 01011KT P6SM SCT200 
     FM251500 02012G20KT P6SM VCSH FEW035 BKN060 
     FM251900 02010G18KT P6SM -SHRA SCT025 BKN040